Time;durP1;ratioP1;P1;durP2;ratioP2;P2;SDS_P1;SDS_P2;PMS_P1;PMS_P2;Temp;Humidity;BMP_temperature;BMP_pressure;BME280_temperature;BME280_humidity;BME280_pressure;Samples;Min_cycle;Max_cycle;Signal;HPM_P1;HPM_P2
2023/05/19 00:00:02;;;;;;;7.28;2.63;;;;;;;7.84;77.71;101509.28;5047946;28;20525;-71
2023/05/19 00:03:16;;;;;;;5.90;2.00;;;;;;;7.80;77.78;101507.66;5032759;28;20559;-70
2023/05/19 00:06:25;;;;;;;5.72;2.17;;;;;;;7.69;78.31;101508.78;5032739;28;20040;-70
2023/05/19 00:09:28;;;;;;;9.63;2.33;;;;;;;7.72;78.08;101496.56;5032952;28;20523;-70
2023/05/19 00:12:31;;;;;;;;;;;;;;;7.70;78.00;101494.00;5033199;28;20094;-71
2023/05/19 00:15:35;;;;;;;9.52;2.00;;;;;;;7.73;77.66;101496.53;5032685;28;19971;-71
2023/05/19 00:18:39;;;;;;;8.23;2.20;;;;;;;7.82;77.80;101492.84;5032621;28;20083;-71
2023/05/19 00:21:42;;;;;;;10.55;2.33;;;;;;;7.77;77.37;101490.34;5032852;28;20052;-71
2023/05/19 00:24:46;;;;;;;4.97;2.17;;;;;;;7.76;77.41;101487.81;5032751;28;20119;-71
2023/05/19 00:27:49;;;;;;;7.95;2.00;;;;;;;7.67;77.95;101492.31;5032858;28;20523;-71
2023/05/19 00:30:52;;;;;;;;;;;;;;;7.55;78.30;101484.81;5020709;28;20111;-71
2023/05/19 00:33:56;;;;;;;5.20;1.98;;;;;;;7.46;78.46;101485.03;5032609;28;20012;-71
2023/05/19 00:36:59;;;;;;;9.32;2.28;;;;;;;7.30;78.76;101473.28;5027676;28;20045;-71
2023/05/19 00:40:04;;;;;;;;;;;;;;;7.30;78.87;101473.28;5020778;28;20117;-71
2023/05/19 00:43:08;;;;;;;5.97;2.03;;;;;;;7.38;79.00;101476.56;5032447;28;19920;-71
2023/05/19 00:46:11;;;;;;;;;;;;;;;7.29;78.91;101471.59;5032746;28;20091;-71
2023/05/19 00:49:15;;;;;;;6.80;2.25;;;;;;;7.30;78.73;101473.28;5020263;28;19967;-71
2023/05/19 00:52:18;;;;;;;;;;;;;;;7.24;79.37;101474.28;5032796;28;20052;-71
2023/05/19 00:55:27;;;;;;;9.50;2.10;;;;;;;7.21;79.41;101477.81;5020037;28;20437;-71
2023/05/19 00:58:31;;;;;;;9.43;2.17;;;;;;;7.28;79.28;101465.53;5019622;28;20103;-71
2023/05/19 01:01:35;;;;;;;6.55;2.30;;;;;;;7.17;78.87;101465.75;5001420;28;20469;-71
2023/05/19 01:04:40;;;;;;;7.65;2.33;;;;;;;7.06;79.08;101469.50;5004971;28;20460;-71
2023/05/19 01:07:43;;;;;;;5.50;2.10;;;;;;;6.90;79.78;101469.00;5000301;28;20045;-71
2023/05/19 01:10:46;;;;;;;;;;;;;;;7.09;79.19;101467.69;5012968;28;20044;-71
2023/05/19 01:13:50;;;;;;;6.78;1.88;;;;;;;7.05;78.89;101475.59;5000654;28;19919;-70
2023/05/19 01:17:04;;;;;;;6.43;1.90;;;;;;;7.02;79.12;101476.53;5012391;28;20509;-70
2023/05/19 01:20:18;;;;;;;7.35;2.13;;;;;;;6.95;79.09;101467.13;5026969;28;20048;-70
2023/05/19 01:23:42;;;;;;;7.18;2.08;;;;;;;6.93;79.78;101469.78;5023606;28;20110;-70
2023/05/19 01:27:04;;;;;;;;;;;;;;;6.84;79.71;101479.53;5036056;28;20413;-70
2023/05/19 01:30:25;;;;;;;7.18;2.45;;;;;;;6.89;79.47;101481.16;5035491;28;20293;-70
2023/05/19 01:33:30;;;;;;;4.88;1.90;;;;;;;6.88;79.62;101475.97;5035444;28;20516;-70
2023/05/19 01:36:35;;;;;;;6.00;1.85;;;;;;;6.82;79.60;101476.09;5035313;28;20103;-70
2023/05/19 01:39:40;;;;;;;7.05;2.88;;;;;;;6.71;79.84;101473.75;5035566;28;20099;-70
2023/05/19 01:42:45;;;;;;;4.75;1.83;;;;;;;6.71;79.61;101479.78;5035260;28;20563;-70
2023/05/19 01:45:50;;;;;;;4.95;2.00;;;;;;;6.80;79.47;101478.75;5035110;28;20125;-71
2023/05/19 01:48:53;;;;;;;7.68;1.95;;;;;;;6.70;79.34;101480.69;5035117;28;20044;-70
2023/05/19 01:51:57;;;;;;;5.55;2.28;;;;;;;6.64;80.02;101499.00;5035374;28;20126;-70
2023/05/19 01:55:00;;;;;;;7.22;2.25;;;;;;;6.59;80.08;101490.44;5034964;28;20128;-70
2023/05/19 01:58:41;;;;;;;5.57;1.90;;;;;;;6.48;80.40;101489.81;5035033;28;20103;-70
2023/05/19 02:01:53;;;;;;;6.65;1.88;;;;;;;6.41;80.47;101488.19;5022554;28;20425;-70
2023/05/19 02:05:02;;;;;;;8.77;1.98;;;;;;;6.41;80.60;101480.41;5022574;28;20124;-70
2023/05/19 02:08:15;;;;;;;8.63;1.90;;;;;;;6.44;80.56;101477.75;5022606;28;20052;-70
2023/05/19 02:11:24;;;;;;;;;;;;;;;6.58;80.08;101478.34;5035232;28;20054;-70
2023/05/19 02:14:46;;;;;;;6.03;2.30;;;;;;;6.54;79.92;101479.28;5022277;28;19920;-70
2023/05/19 02:17:53;;;;;;;5.60;2.45;;;;;;;6.46;80.27;101479.44;5022533;28;20052;-70
2023/05/19 02:20:56;;;;;;;7.75;1.88;;;;;;;6.45;79.87;101485.53;5034572;28;20126;-70
2023/05/19 02:24:00;;;;;;;7.53;1.83;;;;;;;6.40;80.45;101482.16;5022235;28;20049;-70
2023/05/19 02:27:04;;;;;;;;;;;;;;;6.69;79.56;101465.97;5011348;28;20048;-70
2023/05/19 02:30:08;;;;;;;6.13;2.00;;;;;;;6.39;79.83;101475.25;5034120;28;20428;-70
2023/05/19 02:33:12;;;;;;;5.32;2.10;;;;;;;6.37;79.97;101479.59;5034368;28;20099;-71
2023/05/19 02:36:17;;;;;;;;;;;;;;;6.51;79.51;101474.16;5034571;28;20527;-70
2023/05/19 02:39:21;;;;;;;7.28;2.25;;;;;;;6.53;79.40;101460.22;5034201;28;20003;-70
2023/05/19 02:42:24;;;;;;;6.50;2.05;;;;;;;6.49;79.18;101473.31;5022027;28;20088;-70
2023/05/19 02:45:28;;;;;;;4.75;1.85;;;;;;;6.44;78.89;101470.78;5034035;28;20092;-70
2023/05/19 02:48:31;;;;;;;9.73;2.60;;;;;;;6.27;79.66;101471.13;5034275;28;20103;-70
2023/05/19 02:51:34;;;;;;;;;;;;;;;6.14;80.04;101471.41;5034422;28;20115;-70
2023/05/19 02:54:38;;;;;;;4.75;1.50;;;;;;;6.05;80.29;101470.69;5021626;28;20008;-70
2023/05/19 02:57:42;;;;;;;6.60;2.00;;;;;;;6.10;80.41;101468.03;5021642;28;20168;-70
2023/05/19 03:00:45;;;;;;;4.03;1.38;;;;;;;6.12;80.55;101470.56;5031408;28;20052;-70
2023/05/19 03:03:48;;;;;;;9.85;2.28;;;;;;;6.02;80.61;101470.75;5001889;28;20056;-70
2023/05/19 03:06:52;;;;;;;;;;;;;;;6.05;80.91;101478.47;5014365;28;20049;-70
2023/05/19 03:09:56;;;;;;;9.20;2.40;;;;;;;5.98;80.86;101476.03;5013852;28;19924;-70
2023/05/19 03:12:59;;;;;;;6.20;1.80;;;;;;;6.13;80.28;101473.16;5014089;28;20414;-70
2023/05/19 03:16:03;;;;;;;6.50;2.47;;;;;;;6.13;79.77;101475.75;5013711;28;20044;-70
2023/05/19 03:19:06;;;;;;;;;;;;;;;6.01;80.08;101475.97;5002248;28;20104;-70
2023/05/19 03:22:09;;;;;;;6.78;2.47;;;;;;;5.82;80.98;101475.41;5013625;28;19920;-70
2023/05/19 03:25:13;;;;;;;;;;;;;;;5.76;81.28;101470.31;5014096;28;20413;-70
2023/05/19 03:28:17;;;;;;;;;;;;;;;5.81;81.05;101471.09;5013845;28;19924;-70
2023/05/19 03:31:20;;;;;;;7.82;1.90;;;;;;;5.91;81.19;101469.22;5001385;28;19919;-70
2023/05/19 03:34:23;;;;;;;6.00;1.95;;;;;;;5.89;80.85;101463.19;5001474;28;20044;-70
2023/05/19 03:37:27;;;;;;;5.35;2.00;;;;;;;5.85;80.58;101464.13;5001174;28;20136;-70
2023/05/19 03:40:30;;;;;;;7.43;1.83;;;;;;;5.88;80.93;101469.25;5001476;28;20133;-70
2023/05/19 03:43:40;;;;;;;5.10;1.65;;;;;;;5.78;80.66;101466.81;5000513;28;20052;-70
2023/05/19 03:46:44;;;;;;;4.90;2.13;;;;;;;5.77;80.81;101472.88;5001096;28;20045;-70
2023/05/19 03:50:03;;;;;;;7.07;2.10;;;;;;;5.85;80.86;101474.50;5001098;28;20417;-70
2023/05/19 03:53:26;;;;;;;6.10;2.00;;;;;;;5.66;80.69;101472.22;5001046;28;20056;-70
2023/05/19 03:56:29;;;;;;;;;;;;;;;5.68;80.88;101478.25;5001376;28;20182;-70
2023/05/19 03:59:34;;;;;;;6.30;1.50;;;;;;;5.68;80.95;101470.47;5012970;28;19968;-69
2023/05/19 04:02:37;;;;;;;7.25;2.05;;;;;;;5.71;80.81;101475.59;5018108;28;20060;-70
2023/05/19 04:05:40;;;;;;;9.60;1.63;;;;;;;5.80;80.79;101478.00;5020528;28;20060;-70
2023/05/19 04:08:43;;;;;;;7.10;1.85;;;;;;;5.77;80.81;101466.84;5032851;28;20044;-70
2023/05/19 04:11:47;;;;;;;;;;;;;;;5.67;81.16;101481.69;5033221;28;20083;-70
2023/05/19 04:14:50;;;;;;;5.47;1.75;;;;;;;5.62;80.91;101480.94;5020429;28;19923;-70
2023/05/19 04:17:53;;;;;;;6.22;1.48;;;;;;;5.79;80.91;101485.84;5032972;28;20052;-70
2023/05/19 04:20:56;;;;;;;;;;;;;;;5.68;80.96;101483.44;5033123;28;20444;-70
2023/05/19 04:23:59;;;;;;;6.32;1.70;;;;;;;5.67;81.23;101484.31;5031748;28;20391;-71
2023/05/19 04:27:03;;;;;;;6.03;1.65;;;;;;;5.71;81.58;101492.88;5020366;28;20594;-71
2023/05/19 04:30:07;;;;;;;8.85;2.03;;;;;;;5.74;81.01;101488.53;5020240;28;20416;-70
2023/05/19 04:33:12;;;;;;;3.58;1.40;;;;;;;5.83;80.85;101490.94;5017095;28;20127;-71
2023/05/19 04:36:19;;;;;;;5.70;1.77;;;;;;;5.77;80.66;101488.44;5020222;28;20048;-71
2023/05/19 04:39:23;;;;;;;4.38;1.55;;;;;;;5.81;81.12;101495.31;5032456;28;20076;-71
2023/05/19 04:42:31;;;;;;;6.00;1.67;;;;;;;5.89;80.90;101491.72;5020044;28;20045;-71
2023/05/19 04:45:41;;;;;;;7.22;1.73;;;;;;;5.71;81.70;101491.16;5007707;28;20044;-71
2023/05/19 04:48:46;;;;;;;7.90;1.70;;;;;;;5.74;81.75;101493.72;5020005;28;20119;-70
2023/05/19 04:51:50;;;;;;;8.30;2.00;;;;;;;5.86;81.57;101496.97;5032496;28;20048;-70
2023/05/19 04:54:57;;;;;;;5.40;2.53;;;;;;;5.97;81.22;101495.94;5022803;28;20040;-70
2023/05/19 04:58:00;;;;;;;5.07;1.80;;;;;;;6.13;81.05;101491.34;5022972;28;20091;-71
2023/05/19 05:01:04;;;;;;;6.78;1.60;;;;;;;6.31;80.59;101489.25;5017276;28;20473;-71
2023/05/19 05:04:08;;;;;;;6.18;1.50;;;;;;;6.18;79.77;101484.28;5003060;28;20061;-70
2023/05/19 05:07:12;;;;;;;4.63;1.40;;;;;;;6.20;79.95;101492.06;5003312;28;20088;-70
2023/05/19 05:10:15;;;;;;;5.85;1.60;;;;;;;6.29;79.93;101494.50;5003035;28;20409;-70
2023/05/19 05:13:21;;;;;;;4.93;1.75;;;;;;;6.38;79.83;101483.06;5003718;28;20540;-70
2023/05/19 05:16:25;;;;;;;5.00;1.65;;;;;;;6.55;80.06;101487.94;5003940;28;20053;-70
2023/05/19 05:19:29;;;;;;;3.80;1.65;;;;;;;6.58;78.84;101488.72;5015997;28;20177;-71
2023/05/19 05:22:33;;;;;;;6.57;2.03;;;;;;;6.64;79.18;101488.59;5003747;28;20571;-70
2023/05/19 05:25:37;;;;;;;7.38;1.83;;;;;;;6.77;79.46;101480.56;5003573;28;20469;-71
2023/05/19 05:28:40;;;;;;;5.70;1.63;;;;;;;6.83;79.58;101483.88;5003695;28;20076;-70
2023/05/19 05:31:44;;;;;;;7.35;2.17;;;;;;;6.96;79.42;101474.06;5003871;28;20044;-70
2023/05/19 05:34:48;;;;;;;8.95;1.58;;;;;;;7.07;78.80;101474.66;5003519;28;20470;-70
2023/05/19 05:37:52;;;;;;;6.78;2.45;;;;;;;7.21;79.03;101477.81;5003467;28;20096;-70
2023/05/19 05:40:55;;;;;;;9.65;1.80;;;;;;;7.25;79.35;101478.59;5015667;28;20095;-71
2023/05/19 05:43:58;;;;;;;6.68;1.70;;;;;;;7.39;78.92;101478.28;5003455;28;20643;-71
2023/05/19 05:47:02;;;;;;;;;;;;;;;7.44;79.25;101476.44;4992580;28;20055;-70
2023/05/19 05:50:08;;;;;;;7.22;1.92;;;;;;;7.50;79.38;101472.78;5003604;28;20385;-71
2023/05/19 05:53:18;;;;;;;7.15;2.72;;;;;;;7.60;79.64;101462.16;5003237;28;20520;-71
2023/05/19 05:56:21;;;;;;;8.50;1.60;;;;;;;7.71;79.24;101468.81;5003067;28;20119;-71
2023/05/19 05:59:27;;;;;;;4.32;1.20;;;;;;;7.77;79.34;101464.31;5002522;28;20103;-71
2023/05/19 06:02:31;;;;;;;4.43;1.42;;;;;;;7.79;79.56;101470.34;5019343;28;20071;-70
2023/05/19 06:05:35;;;;;;;8.10;2.20;;;;;;;7.91;80.44;101466.56;5021701;28;20036;-71
2023/05/19 06:08:38;;;;;;;5.78;2.45;;;;;;;8.03;79.82;101470.59;5022550;28;20099;-71
2023/05/19 06:11:41;;;;;;;7.82;1.90;;;;;;;8.14;79.00;101464.22;5022468;28;20416;-70
2023/05/19 06:14:45;;;;;;;4.70;1.98;;;;;;;8.24;79.39;101464.81;5022299;28;20044;-70
2023/05/19 06:18:08;;;;;;;3.97;1.58;;;;;;;8.42;79.57;101468.66;5020652;28;20508;-72
2023/05/19 06:21:12;;;;;;;;;;;;;;;8.55;79.39;101464.84;5035072;28;20040;-71
2023/05/19 06:24:16;;;;;;;5.70;1.88;;;;;;;8.67;79.12;101461.00;5022287;28;20407;-71
2023/05/19 06:27:19;;;;;;;3.97;1.55;;;;;;;8.83;79.52;101449.22;5022240;28;20040;-71
2023/05/19 06:30:23;;;;;;;6.93;1.90;;;;;;;8.98;79.39;101460.94;5021851;28;20039;-71
2023/05/19 06:33:38;;;;;;;7.70;1.90;;;;;;;9.12;78.58;101449.22;5022098;28;20044;-70
2023/05/19 06:36:41;;;;;;;6.80;1.88;;;;;;;9.22;77.73;101445.41;5022122;28;20417;-71
2023/05/19 06:39:44;;;;;;;;;;;;;;;9.36;76.88;101443.22;5022392;28;20044;-71
2023/05/19 06:42:48;;;;;;;6.72;1.88;;;;;;;9.49;76.34;101443.69;5021896;28;19920;-71
2023/05/19 06:45:56;;;;;;;6.85;1.70;;;;;;;9.60;74.90;101440.69;5021806;28;20099;-71
2023/05/19 06:49:01;;;;;;;7.63;1.98;;;;;;;9.60;73.48;101436.31;5021761;28;20045;-71
2023/05/19 06:52:09;;;;;;;5.18;1.52;;;;;;;9.78;73.85;101437.47;5021761;28;20106;-72
2023/05/19 06:55:12;;;;;;;9.50;2.72;;;;;;;9.96;72.77;101433.38;5021678;28;20128;-70
2023/05/19 06:58:16;;;;;;;;;;;;;;;10.11;71.54;101438.03;5022123;28;20040;-71
2023/05/19 07:01:19;;;;;;;11.95;2.15;;;;;;;10.18;70.86;101439.53;5021320;28;19940;-70
2023/05/19 07:04:29;;;;;;;8.32;1.65;;;;;;;10.21;67.93;101436.81;5021533;28;20048;-70
2023/05/19 07:07:33;;;;;;;7.47;1.83;;;;;;;10.32;68.03;101444.28;5021378;28;20040;-69
2023/05/19 07:10:37;;;;;;;8.18;2.10;;;;;;;10.40;67.60;101433.53;5021347;28;20048;-70
2023/05/19 07:13:46;;;;;;;7.60;2.10;;;;;;;10.46;67.90;101423.75;5021293;28;20307;-69
2023/05/19 07:16:53;;;;;;;13.43;2.55;;;;;;;10.58;67.84;101426.78;5020604;28;20117;-69
2023/05/19 07:19:57;;;;;;;;;;;;;;;10.75;67.89;101420.91;5021701;28;20128;-70
2023/05/19 07:23:01;;;;;;;7.23;1.60;;;;;;;10.86;65.82;101419.56;5033445;28;20376;-69
2023/05/19 07:26:04;;;;;;;8.13;2.30;;;;;;;10.95;66.20;101423.59;5021100;28;20259;-70
2023/05/19 07:29:08;;;;;;;;;;;;;;;11.00;65.45;101418.19;5047718;28;20507;-70
2023/05/19 07:32:11;;;;;;;7.22;1.90;;;;;;;11.14;65.34;101410.63;5048241;28;20061;-74
2023/05/19 07:35:14;;;;;;;;;;;;;;;11.23;64.87;101407.66;5037277;28;20522;-72
2023/05/19 07:38:17;;;;;;;14.27;2.53;;;;;;;11.27;64.52;101406.59;5037772;28;19935;-72
2023/05/19 07:41:21;;;;;;;6.80;1.98;;;;;;;11.37;64.40;101402.69;5051008;28;20405;-71
2023/05/19 07:44:25;;;;;;;9.10;2.75;;;;;;;11.42;63.27;101399.84;5051141;28;20043;-71
2023/05/19 07:47:29;;;;;;;7.45;1.45;;;;;;;11.52;63.76;101389.84;5047106;28;20055;-70
2023/05/19 07:50:32;;;;;;;7.80;1.88;;;;;;;11.64;63.60;101391.94;5047203;28;20420;-70
2023/05/19 07:53:36;;;;;;;11.38;2.67;;;;;;;11.69;63.51;101397.84;5047280;28;20692;-69
2023/05/19 07:56:39;;;;;;;7.53;2.08;;;;;;;11.74;63.38;101395.91;5051330;28;20148;-70
2023/05/19 07:59:42;;;;;;;6.60;2.08;;;;;;;11.86;62.81;101391.91;5049942;28;20105;-73
2023/05/19 08:02:46;;;;;;;5.55;1.80;;;;;;;11.92;61.82;101399.50;5047157;28;20147;-70
2023/05/19 08:05:49;;;;;;;8.35;3.08;;;;;;;12.03;61.55;101391.19;5048579;28;20076;-70
2023/05/19 08:08:53;;;;;;;8.50;2.15;;;;;;;12.29;61.73;101393.47;5050757;28;20043;-70
2023/05/19 08:11:56;;;;;;;13.05;2.72;;;;;;;12.48;61.34;101387.38;5051000;28;20125;-69
2023/05/19 08:15:00;;;;;;;9.85;1.95;;;;;;;12.65;61.19;101383.97;5050218;28;20097;-68
2023/05/19 08:18:04;;;;;;;9.07;2.88;;;;;;;12.77;60.43;101389.50;5044610;28;20047;-68
2023/05/19 08:21:08;;;;;;;6.72;1.67;;;;;;;12.98;58.11;101376.25;5047225;28;20036;-69
2023/05/19 08:24:11;;;;;;;6.40;1.70;;;;;;;13.12;57.67;101376.44;5036011;28;20067;-70
2023/05/19 08:27:15;;;;;;;6.22;1.70;;;;;;;13.21;58.38;101378.59;5048993;28;20071;-70
2023/05/19 08:30:19;;;;;;;4.97;1.45;;;;;;;13.28;57.25;101367.81;5039946;28;20565;-76
2023/05/19 08:33:22;;;;;;;12.02;6.50;;;;;;;13.52;56.93;101368.34;5053894;28;20103;-69
2023/05/19 08:36:25;;;;;;;8.70;2.38;;;;;;;13.61;57.27;101365.25;5056585;28;20515;-70
2023/05/19 08:39:28;;;;;;;8.27;3.10;;;;;;;13.62;56.42;101362.53;5056702;28;20139;-70
2023/05/19 08:42:32;;;;;;;7.75;1.67;;;;;;;13.68;55.63;101359.59;5056631;28;20102;-71
2023/05/19 08:45:38;;;;;;;9.43;1.85;;;;;;;13.76;54.57;101345.22;5056348;28;20143;-70
2023/05/19 08:48:43;;;;;;;7.97;1.55;;;;;;;13.77;54.68;101349.53;5056171;28;20144;-71
2023/05/19 08:51:56;;;;;;;8.90;2.10;;;;;;;13.87;55.49;101334.97;5052579;28;20052;-70
2023/05/19 08:55:30;;;;;;;7.40;2.00;;;;;;;14.00;53.95;101343.91;5054567;28;20094;-71
2023/05/19 08:58:34;;;;;;;6.63;2.10;;;;;;;14.21;54.23;101333.16;5054390;28;20460;-71
2023/05/19 09:01:38;;;;;;;8.75;1.63;;;;;;;14.42;52.87;101326.69;5055171;28;20064;-71
2023/05/19 09:04:44;;;;;;;11.50;2.00;;;;;;;14.34;52.76;101321.03;5042930;28;20631;-71
2023/05/19 09:07:50;;;;;;;6.18;1.65;;;;;;;14.26;52.13;101320.59;5043455;28;20043;-70
2023/05/19 09:10:54;;;;;;;10.35;2.15;;;;;;;14.23;52.72;101310.25;5055917;28;20052;-70
2023/05/19 09:13:58;;;;;;;5.30;1.58;;;;;;;14.51;52.65;101313.06;5056065;28;20051;-71
2023/05/19 09:17:02;;;;;;;4.95;1.60;;;;;;;14.54;51.25;101310.28;5043394;28;20056;-71
2023/05/19 09:20:11;;;;;;;5.85;1.92;;;;;;;14.50;50.51;101303.47;5055667;28;20163;-70
2023/05/19 09:23:15;;;;;;;7.43;2.10;;;;;;;14.63;51.07;101299.22;5055856;28;20132;-71
2023/05/19 09:26:19;;;;;;;8.40;2.40;;;;;;;14.71;50.66;101292.66;5055901;28;20133;-71
2023/05/19 09:29:23;;;;;;;9.80;2.20;;;;;;;14.75;49.82;101287.16;5055553;28;20047;-70
2023/05/19 09:32:27;;;;;;;9.05;1.65;;;;;;;15.09;49.61;101278.13;5055752;28;20555;-70
2023/05/19 09:35:33;;;;;;;6.15;1.63;;;;;;;15.25;49.91;101285.97;5055604;28;20048;-71
2023/05/19 09:38:38;;;;;;;8.70;1.92;;;;;;;15.19;49.17;101285.47;5055482;28;20087;-71
2023/05/19 09:41:42;;;;;;;4.93;1.83;;;;;;;15.18;49.62;101281.16;5054206;28;20048;-72
2023/05/19 09:44:46;;;;;;;8.98;2.13;;;;;;;15.19;50.08;101280.19;5055194;28;20040;-71
2023/05/19 09:47:50;;;;;;;10.10;1.98;;;;;;;15.28;49.34;101284.94;5055402;28;20044;-71
2023/05/19 09:50:54;;;;;;;8.30;1.45;;;;;;;15.61;47.74;101283.84;5055112;28;20558;-71
2023/05/19 09:53:58;;;;;;;8.32;1.80;;;;;;;15.71;47.49;101269.19;5054991;28;20128;-71
2023/05/19 09:57:03;;;;;;;9.75;2.03;;;;;;;15.67;48.06;101280.88;5054975;28;20090;-71
2023/05/19 10:00:16;;;;;;;9.07;1.70;;;;;;;15.75;47.26;101284.69;5053999;28;20048;-71
2023/05/19 10:03:23;;;;;;;5.03;1.50;;;;;;;15.86;45.45;101270.88;5054848;28;20052;-71
2023/05/19 10:06:26;;;;;;;6.07;1.50;;;;;;;15.83;44.57;101270.22;5054797;28;20056;-71
2023/05/19 10:09:29;;;;;;;9.65;2.08;;;;;;;16.03;45.40;101260.09;5054753;28;20067;-70
2023/05/19 10:12:32;;;;;;;6.78;1.50;;;;;;;15.99;44.15;101261.25;5054749;28;20129;-71
2023/05/19 10:15:36;;;;;;;7.60;1.90;;;;;;;15.99;43.41;101255.97;5054547;28;20048;-69
2023/05/19 10:18:40;;;;;;;7.72;1.70;;;;;;;15.91;43.43;101245.03;5054584;28;20043;-71
2023/05/19 10:21:43;;;;;;;8.68;1.83;;;;;;;16.21;44.56;101249.31;5054571;28;20120;-72
2023/05/19 10:24:46;;;;;;;6.43;1.73;;;;;;;16.14;43.17;101253.28;5054475;28;20047;-71
2023/05/19 10:28:00;;;;;;;10.70;2.50;;;;;;;16.23;43.73;101244.78;5054346;28;20067;-72
2023/05/19 10:31:08;;;;;;;6.65;2.38;;;;;;;16.21;44.48;101238.78;5054430;28;20044;-71
2023/05/19 10:34:18;;;;;;;12.57;2.05;;;;;;;16.52;45.28;101233.16;5054330;28;20163;-72
2023/05/19 10:37:58;;;;;;;6.63;1.35;;;;;;;16.73;42.87;101241.47;5054261;28;20128;-71
2023/05/19 10:41:21;;;;;;;8.07;1.73;;;;;;;16.48;42.07;101226.41;5054138;28;20052;-71
2023/05/19 10:44:25;;;;;;;7.53;1.63;;;;;;;16.41;43.79;101230.41;5054293;28;20452;-71
2023/05/19 10:47:29;;;;;;;8.60;1.77;;;;;;;16.29;41.55;101231.19;5054027;28;20059;-71
2023/05/19 10:50:36;;;;;;;5.03;1.63;;;;;;;16.37;42.34;101217.47;5054214;28;20102;-71
2023/05/19 10:53:45;;;;;;;6.45;1.65;;;;;;;16.69;43.34;101212.75;5054193;28;20519;-71
2023/05/19 10:56:49;;;;;;;6.55;1.50;;;;;;;16.92;41.96;101219.97;5053753;28;20060;-71
2023/05/19 10:59:56;;;;;;;5.57;1.55;;;;;;;16.92;41.13;101208.56;5054287;28;20128;-70
2023/05/19 11:03:22;;;;;;;8.63;2.10;;;;;;;16.96;41.68;101205.59;5041318;28;20600;-72
2023/05/19 11:06:28;;;;;;;7.35;1.77;;;;;;;16.92;41.19;101206.78;5053784;28;20039;-73
2023/05/19 11:09:36;;;;;;;4.82;1.42;;;;;;;16.82;40.73;101211.00;5054179;28;20516;-73
2023/05/19 11:12:42;;;;;;;6.70;1.40;;;;;;;16.95;42.42;101211.84;5053723;28;20508;-71
2023/05/19 11:15:45;;;;;;;3.90;1.42;;;;;;;17.15;40.62;101204.34;5053137;28;20048;-69
2023/05/19 11:18:49;;;;;;;5.65;1.55;;;;;;;17.25;39.79;101199.25;5053500;28;20052;-72
2023/05/19 11:21:56;;;;;;;7.30;1.73;;;;;;;17.44;41.19;101184.66;5041092;28;20415;-73
2023/05/19 11:24:59;;;;;;;6.82;1.52;;;;;;;17.54;40.20;101194.56;5053383;28;20043;-72
2023/05/19 11:28:04;;;;;;;4.22;1.15;;;;;;;17.80;39.89;101193.56;5053068;28;20059;-73
2023/05/19 11:31:09;;;;;;;5.22;1.50;;;;;;;18.16;39.67;101186.59;5052493;28;20044;-72
2023/05/19 11:34:12;;;;;;;4.68;1.27;;;;;;;18.23;39.21;101185.16;5052659;28;20397;-71
2023/05/19 11:37:16;;;;;;;8.30;1.65;;;;;;;17.93;38.26;101184.75;5013474;28;20139;-71
2023/05/19 11:40:21;;;;;;;7.05;1.75;;;;;;;17.88;41.20;101187.75;5013407;28;20410;-83
2023/05/19 11:43:25;;;;;;;3.30;1.13;;;;;;;17.96;38.83;101174.78;5013299;28;20091;-72
2023/05/19 11:46:30;;;;;;;7.20;1.80;;;;;;;18.11;38.72;101183.44;5012397;28;20051;-73
2023/05/19 11:49:33;;;;;;;4.55;1.38;;;;;;;18.55;38.76;101172.16;5012787;28;20057;-73
2023/05/19 11:52:42;;;;;;;7.63;1.77;;;;;;;18.58;37.88;101168.44;5013333;28;20109;-73
2023/05/19 11:55:46;;;;;;;6.35;1.60;;;;;;;18.56;36.40;101167.72;5013343;28;20049;-71
2023/05/19 11:58:52;;;;;;;8.35;1.90;;;;;;;18.98;43.33;101160.94;5040868;28;20504;-71
2023/05/19 12:01:55;;;;;;;7.93;1.63;;;;;;;19.14;40.97;101152.66;5052514;28;20067;-71
2023/05/19 12:04:58;;;;;;;8.23;1.70;;;;;;;19.38;39.80;101149.88;5051649;28;20416;-71
2023/05/19 12:08:02;;;;;;;5.78;2.10;;;;;;;19.48;40.61;101152.66;5052378;28;20052;-71
2023/05/19 12:11:05;;;;;;;6.57;2.20;;;;;;;19.42;39.39;101153.13;5052736;28;20079;-71
2023/05/19 12:14:44;;;;;;;6.50;2.05;;;;;;;19.73;40.23;101140.94;5032125;28;20044;-71
2023/05/19 12:17:55;;;;;;;9.05;1.58;;;;;;;19.55;37.85;101139.72;5037359;28;20118;-71
2023/05/19 12:20:58;;;;;;;7.90;1.70;;;;;;;19.66;38.87;101140.59;5052481;28;20052;-71
2023/05/19 12:24:03;;;;;;;6.75;1.67;;;;;;;20.04;38.70;101135.75;5052630;28;20047;-71
2023/05/19 12:27:17;;;;;;;5.70;1.67;;;;;;;19.97;37.18;101132.78;5052570;28;20048;-71
2023/05/19 12:30:27;;;;;;;6.43;1.63;;;;;;;20.20;36.58;101126.41;5052557;28;20102;-69
2023/05/19 12:33:32;;;;;;;5.85;1.77;;;;;;;19.86;37.77;101130.19;5052452;28;20071;-68
2023/05/19 12:36:35;;;;;;;7.05;1.63;;;;;;;19.92;36.25;101127.84;5052408;28;20051;-70
2023/05/19 12:39:41;;;;;;;7.88;1.40;;;;;;;20.02;35.71;101133.25;5052358;28;20047;-72
2023/05/19 12:42:45;;;;;;;4.65;1.15;;;;;;;19.88;37.32;101128.25;5040081;28;20044;-72
2023/05/19 12:45:48;;;;;;;8.02;1.85;;;;;;;19.73;36.13;101128.50;5052447;28;20179;-71
2023/05/19 12:48:58;;;;;;;5.38;1.60;;;;;;;19.90;36.77;101139.56;5052508;28;20048;-72
2023/05/19 12:52:02;;;;;;;8.23;1.63;;;;;;;20.10;35.46;101135.25;5052300;28;20114;-71
2023/05/19 12:55:06;;;;;;;7.65;2.17;;;;;;;20.12;37.36;101128.03;5051577;28;20134;-71
2023/05/19 12:58:14;;;;;;;8.13;1.48;;;;;;;20.24;34.84;101118.19;5052274;28;20460;-71
2023/05/19 13:01:17;;;;;;;6.32;1.80;;;;;;;20.64;33.60;101119.22;5052162;28;20067;-70
2023/05/19 13:04:21;;;;;;;3.40;1.30;;;;;;;21.12;33.42;101115.06;5052124;28;20531;-70
2023/05/19 13:07:24;;;;;;;8.15;1.70;;;;;;;21.02;32.43;101111.53;5052182;28;20067;-70
2023/05/19 13:10:28;;;;;;;4.68;1.40;;;;;;;20.83;33.07;101113.13;5052062;28;20039;-70
2023/05/19 13:13:50;;;;;;;4.15;1.80;;;;;;;20.81;33.47;101111.59;5051223;28;20482;-71
2023/05/19 13:17:12;;;;;;;8.25;1.48;;;;;;;20.61;33.62;101102.66;5053860;28;20060;-70
2023/05/19 13:20:16;;;;;;;5.25;1.45;;;;;;;20.53;34.42;101100.66;5054829;28;20090;-71
2023/05/19 13:23:19;;;;;;;5.15;1.40;;;;;;;20.47;34.19;101098.50;5054841;28;20417;-71
2023/05/19 13:26:22;;;;;;;5.55;1.92;;;;;;;20.82;34.01;101100.00;5054782;28;20086;-71
2023/05/19 13:29:27;;;;;;;6.70;1.35;;;;;;;20.81;33.98;101099.16;5055332;28;20079;-71
2023/05/19 13:32:30;;;;;;;3.53;1.70;;;;;;;21.04;34.07;101083.84;5055490;28;20512;-71
2023/05/19 13:35:36;;;;;;;6.28;1.67;;;;;;;20.94;34.71;101087.47;5055214;28;20477;-71
2023/05/19 13:38:40;;;;;;;5.90;1.77;;;;;;;21.11;34.41;101084.16;5055530;28;20063;-71
2023/05/19 13:41:43;;;;;;;4.93;1.92;;;;;;;20.90;34.75;101070.94;5055361;28;20410;-71
2023/05/19 13:44:47;;;;;;;5.10;1.58;;;;;;;21.47;34.94;101069.44;5055246;28;20052;-71
2023/05/19 13:47:50;;;;;;;3.13;1.25;;;;;;;21.63;34.44;101065.41;5055207;28;20040;-70
2023/05/19 13:50:54;;;;;;;5.22;1.50;;;;;;;21.74;34.47;101086.56;5055107;28;20518;-71
2023/05/19 13:53:57;;;;;;;7.22;1.75;;;;;;;21.69;34.97;101073.66;5055160;28;20432;-71
2023/05/19 13:57:01;;;;;;;3.50;1.40;;;;;;;22.06;34.24;101071.16;5054993;28;20511;-70
2023/05/19 14:00:05;;;;;;;4.38;1.60;;;;;;;21.97;33.93;101072.00;5054833;28;20063;-71
2023/05/19 14:03:18;;;;;;;9.35;1.50;;;;;;;22.09;33.90;101070.03;5035059;28;20052;-71
2023/05/19 14:06:21;;;;;;;3.40;1.70;;;;;;;21.81;34.61;101071.72;5034978;28;20460;-71
2023/05/19 14:09:25;;;;;;;8.95;1.60;;;;;;;22.09;33.87;101069.19;5034870;28;20044;-71
2023/05/19 14:12:29;;;;;;;4.28;1.45;;;;;;;22.95;33.27;101062.84;5034733;28;20071;-71
2023/05/19 14:15:36;;;;;;;5.72;1.92;;;;;;;24.88;30.39;101058.69;5034629;28;20568;-70
2023/05/19 14:18:39;;;;;;;6.32;1.48;;;;;;;24.50;30.20;101054.63;5034858;28;20116;-70
2023/05/19 14:21:42;;;;;;;4.88;1.40;;;;;;;25.13;29.27;101046.28;5034485;28;20079;-75
2023/05/19 14:24:46;;;;;;;3.80;1.58;;;;;;;25.57;27.96;101047.88;5034878;28;20056;-75
2023/05/19 14:27:49;;;;;;;6.38;1.50;;;;;;;24.14;29.27;101057.38;5033930;28;20109;-76
2023/05/19 14:30:52;;;;;;;4.10;1.38;;;;;;;25.69;28.52;101055.44;5034491;28;20045;-75
2023/05/19 14:33:56;;;;;;;6.97;1.63;;;;;;;24.00;30.13;101056.13;5034420;28;20048;-76